sensor_id;sensor_type;location;lat;lon;timestamp;temperature;humidity
54938;DHT22;52756;52.826;6.214;2023-12-07T00:00:36;2.30;90.90
54938;DHT22;52756;52.826;6.214;2023-12-07T00:03:02;2.30;90.90
54938;DHT22;52756;52.826;6.214;2023-12-07T00:05:28;2.30;90.90
54938;DHT22;52756;52.826;6.214;2023-12-07T00:07:53;2.30;91.10
54938;DHT22;52756;52.826;6.214;2023-12-07T00:10:19;2.30;90.90
54938;DHT22;52756;52.826;6.214;2023-12-07T00:12:44;2.20;90.80
54938;DHT22;52756;52.826;6.214;2023-12-07T00:15:10;2.20;90.80
54938;DHT22;52756;52.826;6.214;2023-12-07T00:17:35;2.20;90.80
54938;DHT22;52756;52.826;6.214;2023-12-07T00:20:01;2.20;90.80
54938;DHT22;52756;52.826;6.214;2023-12-07T00:22:29;2.20;90.70
54938;DHT22;52756;52.826;6.214;2023-12-07T00:24:55;2.20;90.70
54938;DHT22;52756;52.826;6.214;2023-12-07T00:27:20;2.20;90.80
54938;DHT22;52756;52.826;6.214;2023-12-07T00:29:46;2.20;90.70
54938;DHT22;52756;52.826;6.214;2023-12-07T00:32:12;2.20;90.70
54938;DHT22;52756;52.826;6.214;2023-12-07T00:34:37;2.20;90.70
54938;DHT22;52756;52.826;6.214;2023-12-07T00:37:03;2.20;90.70
54938;DHT22;52756;52.826;6.214;2023-12-07T00:39:29;2.10;90.70
54938;DHT22;52756;52.826;6.214;2023-12-07T00:41:54;2.10;90.70
54938;DHT22;52756;52.826;6.214;2023-12-07T00:44:20;2.10;90.70
54938;DHT22;52756;52.826;6.214;2023-12-07T00:46:45;2.10;90.60
54938;DHT22;52756;52.826;6.214;2023-12-07T00:49:11;2.10;90.60
54938;DHT22;52756;52.826;6.214;2023-12-07T00:51:37;2.10;90.60
54938;DHT22;52756;52.826;6.214;2023-12-07T00:54:03;2.10;90.80
54938;DHT22;52756;52.826;6.214;2023-12-07T00:56:28;2.10;90.60
54938;DHT22;52756;52.826;6.214;2023-12-07T00:58:54;2.10;90.60
54938;DHT22;52756;52.826;6.214;2023-12-07T01:01:20;2.10;90.60
54938;DHT22;52756;52.826;6.214;2023-12-07T01:03:46;2.10;90.60
54938;DHT22;52756;52.826;6.214;2023-12-07T01:06:12;2.10;90.70
54938;DHT22;52756;52.826;6.214;2023-12-07T01:08:37;2.10;90.70
54938;DHT22;52756;52.826;6.214;2023-12-07T01:11:06;2.10;90.70
54938;DHT22;52756;52.826;6.214;2023-12-07T01:13:32;2.10;90.70
54938;DHT22;52756;52.826;6.214;2023-12-07T01:15:57;2.10;90.70
54938;DHT22;52756;52.826;6.214;2023-12-07T01:18:23;2.10;90.70
54938;DHT22;52756;52.826;6.214;2023-12-07T01:20:48;2.10;90.70
54938;DHT22;52756;52.826;6.214;2023-12-07T01:23:14;2.10;90.70
54938;DHT22;52756;52.826;6.214;2023-12-07T01:25:40;2.10;90.70
54938;DHT22;52756;52.826;6.214;2023-12-07T01:28:06;2.10;90.70
54938;DHT22;52756;52.826;6.214;2023-12-07T01:30:31;2.10;90.70
54938;DHT22;52756;52.826;6.214;2023-12-07T01:32:57;2.10;90.70
54938;DHT22;52756;52.826;6.214;2023-12-07T01:35:23;2.10;90.70
54938;DHT22;52756;52.826;6.214;2023-12-07T01:37:48;2.10;90.60
54938;DHT22;52756;52.826;6.214;2023-12-07T01:40:14;2.10;90.60
54938;DHT22;52756;52.826;6.214;2023-12-07T01:42:48;2.10;90.60
54938;DHT22;52756;52.826;6.214;2023-12-07T01:45:14;2.10;90.60
54938;DHT22;52756;52.826;6.214;2023-12-07T01:47:40;2.10;90.60
54938;DHT22;52756;52.826;6.214;2023-12-07T01:50:07;2.10;90.60
54938;DHT22;52756;52.826;6.214;2023-12-07T01:52:38;2.10;90.60
54938;DHT22;52756;52.826;6.214;2023-12-07T01:55:04;2.10;90.60
54938;DHT22;52756;52.826;6.214;2023-12-07T01:57:30;2.10;90.50
54938;DHT22;52756;52.826;6.214;2023-12-07T01:59:56;2.10;90.50
54938;DHT22;52756;52.826;6.214;2023-12-07T02:02:22;2.10;90.50
54938;DHT22;52756;52.826;6.214;2023-12-07T02:04:47;2.10;90.50
54938;DHT22;52756;52.826;6.214;2023-12-07T02:07:13;2.10;90.40
54938;DHT22;52756;52.826;6.214;2023-12-07T02:09:39;2.10;90.40
54938;DHT22;52756;52.826;6.214;2023-12-07T02:12:04;2.10;90.40
54938;DHT22;52756;52.826;6.214;2023-12-07T02:14:30;2.10;90.40
54938;DHT22;52756;52.826;6.214;2023-12-07T02:17:14;2.10;90.40
54938;DHT22;52756;52.826;6.214;2023-12-07T02:19:57;2.10;90.40
54938;DHT22;52756;52.826;6.214;2023-12-07T02:22:32;2.10;90.40
54938;DHT22;52756;52.826;6.214;2023-12-07T02:25:06;2.00;90.30
54938;DHT22;52756;52.826;6.214;2023-12-07T02:27:37;2.00;90.40
54938;DHT22;52756;52.826;6.214;2023-12-07T02:30:03;2.00;90.30
54938;DHT22;52756;52.826;6.214;2023-12-07T02:32:29;2.00;90.30
54938;DHT22;52756;52.826;6.214;2023-12-07T02:34:55;2.00;90.30
54938;DHT22;52756;52.826;6.214;2023-12-07T02:37:21;2.00;90.30
54938;DHT22;52756;52.826;6.214;2023-12-07T02:39:49;2.00;90.20
54938;DHT22;52756;52.826;6.214;2023-12-07T02:42:16;2.00;90.20
54938;DHT22;52756;52.826;6.214;2023-12-07T02:44:43;2.00;90.20
54938;DHT22;52756;52.826;6.214;2023-12-07T02:47:09;2.00;90.20
54938;DHT22;52756;52.826;6.214;2023-12-07T02:49:34;1.90;90.20
54938;DHT22;52756;52.826;6.214;2023-12-07T02:52:00;1.90;90.10
54938;DHT22;52756;52.826;6.214;2023-12-07T02:54:25;1.90;90.10
54938;DHT22;52756;52.826;6.214;2023-12-07T02:56:51;1.90;90.10
54938;DHT22;52756;52.826;6.214;2023-12-07T02:59:16;1.90;90.10
54938;DHT22;52756;52.826;6.214;2023-12-07T03:01:42;1.90;90.10
54938;DHT22;52756;52.826;6.214;2023-12-07T03:04:08;1.90;90.10
54938;DHT22;52756;52.826;6.214;2023-12-07T03:06:33;1.90;90.10
54938;DHT22;52756;52.826;6.214;2023-12-07T03:08:59;1.80;90.20
54938;DHT22;52756;52.826;6.214;2023-12-07T03:11:24;1.90;90.00
54938;DHT22;52756;52.826;6.214;2023-12-07T03:13:50;1.80;90.00
54938;DHT22;52756;52.826;6.214;2023-12-07T03:16:15;1.80;90.00
54938;DHT22;52756;52.826;6.214;2023-12-07T03:18:41;2.00;90.00
54938;DHT22;52756;52.826;6.214;2023-12-07T03:21:06;1.80;90.00
54938;DHT22;52756;52.826;6.214;2023-12-07T03:23:32;1.80;90.00
54938;DHT22;52756;52.826;6.214;2023-12-07T03:25:58;1.80;90.00
54938;DHT22;52756;52.826;6.214;2023-12-07T03:28:23;1.80;90.00
54938;DHT22;52756;52.826;6.214;2023-12-07T03:30:49;1.70;90.00
54938;DHT22;52756;52.826;6.214;2023-12-07T03:33:14;1.70;90.00
54938;DHT22;52756;52.826;6.214;2023-12-07T03:35:40;1.70;90.00
54938;DHT22;52756;52.826;6.214;2023-12-07T03:38:06;1.70;90.00
54938;DHT22;52756;52.826;6.214;2023-12-07T03:40:32;1.70;90.00
54938;DHT22;52756;52.826;6.214;2023-12-07T03:42:57;1.70;90.00
54938;DHT22;52756;52.826;6.214;2023-12-07T03:45:23;1.70;89.90
54938;DHT22;52756;52.826;6.214;2023-12-07T03:47:49;1.70;90.00
54938;DHT22;52756;52.826;6.214;2023-12-07T03:50:15;1.70;90.00
54938;DHT22;52756;52.826;6.214;2023-12-07T03:52:40;1.60;89.90
54938;DHT22;52756;52.826;6.214;2023-12-07T03:55:06;1.70;90.00
54938;DHT22;52756;52.826;6.214;2023-12-07T03:57:32;1.60;89.90
54938;DHT22;52756;52.826;6.214;2023-12-07T03:59:58;1.60;89.90
54938;DHT22;52756;52.826;6.214;2023-12-07T04:02:23;1.60;89.90
54938;DHT22;52756;52.826;6.214;2023-12-07T04:04:49;1.60;90.00
54938;DHT22;52756;52.826;6.214;2023-12-07T04:07:15;1.60;90.00
54938;DHT22;52756;52.826;6.214;2023-12-07T04:09:40;1.60;90.00
54938;DHT22;52756;52.826;6.214;2023-12-07T04:12:06;1.60;90.00
54938;DHT22;52756;52.826;6.214;2023-12-07T04:14:32;1.60;90.00
54938;DHT22;52756;52.826;6.214;2023-12-07T04:16:57;1.60;90.00
54938;DHT22;52756;52.826;6.214;2023-12-07T04:19:23;1.60;90.00
54938;DHT22;52756;52.826;6.214;2023-12-07T04:21:48;1.60;90.00
54938;DHT22;52756;52.826;6.214;2023-12-07T04:24:14;1.60;90.00
54938;DHT22;52756;52.826;6.214;2023-12-07T04:26:40;1.60;90.00
54938;DHT22;52756;52.826;6.214;2023-12-07T04:29:05;1.60;90.00
54938;DHT22;52756;52.826;6.214;2023-12-07T04:31:31;1.60;90.00
54938;DHT22;52756;52.826;6.214;2023-12-07T04:33:56;1.60;90.00
54938;DHT22;52756;52.826;6.214;2023-12-07T04:36:22;1.60;90.00
54938;DHT22;52756;52.826;6.214;2023-12-07T04:38:48;1.60;90.00
54938;DHT22;52756;52.826;6.214;2023-12-07T04:41:13;1.60;90.00
54938;DHT22;52756;52.826;6.214;2023-12-07T04:43:39;1.60;90.00
54938;DHT22;52756;52.826;6.214;2023-12-07T04:46:04;1.60;90.00
54938;DHT22;52756;52.826;6.214;2023-12-07T04:48:30;1.50;90.00
54938;DHT22;52756;52.826;6.214;2023-12-07T04:50:56;1.60;90.00
54938;DHT22;52756;52.826;6.214;2023-12-07T04:53:22;1.60;90.00
54938;DHT22;52756;52.826;6.214;2023-12-07T04:55:47;1.50;90.00
54938;DHT22;52756;52.826;6.214;2023-12-07T04:58:15;1.60;90.00
54938;DHT22;52756;52.826;6.214;2023-12-07T05:00:41;1.60;90.00
54938;DHT22;52756;52.826;6.214;2023-12-07T05:03:06;1.50;90.00
54938;DHT22;52756;52.826;6.214;2023-12-07T05:05:32;1.60;90.00
54938;DHT22;52756;52.826;6.214;2023-12-07T05:07:58;1.60;90.00
54938;DHT22;52756;52.826;6.214;2023-12-07T05:10:23;1.50;90.00
54938;DHT22;52756;52.826;6.214;2023-12-07T05:12:49;1.60;90.10
54938;DHT22;52756;52.826;6.214;2023-12-07T05:15:15;1.50;90.00
54938;DHT22;52756;52.826;6.214;2023-12-07T05:17:41;1.60;90.10
54938;DHT22;52756;52.826;6.214;2023-12-07T05:20:07;1.50;90.00
54938;DHT22;52756;52.826;6.214;2023-12-07T05:22:32;1.60;90.10
54938;DHT22;52756;52.826;6.214;2023-12-07T05:24:58;1.50;90.00
54938;DHT22;52756;52.826;6.214;2023-12-07T05:27:24;1.50;90.00
54938;DHT22;52756;52.826;6.214;2023-12-07T05:29:49;1.50;90.00
54938;DHT22;52756;52.826;6.214;2023-12-07T05:32:15;1.50;90.00
54938;DHT22;52756;52.826;6.214;2023-12-07T05:34:40;1.50;89.80
54938;DHT22;52756;52.826;6.214;2023-12-07T05:37:06;1.50;89.60
54938;DHT22;52756;52.826;6.214;2023-12-07T05:39:32;1.50;89.50
54938;DHT22;52756;52.826;6.214;2023-12-07T05:41:57;1.50;89.40
54938;DHT22;52756;52.826;6.214;2023-12-07T05:44:23;1.40;89.20
54938;DHT22;52756;52.826;6.214;2023-12-07T05:46:49;1.40;89.00
54938;DHT22;52756;52.826;6.214;2023-12-07T05:49:15;1.40;88.90
54938;DHT22;52756;52.826;6.214;2023-12-07T05:51:40;1.30;88.80
54938;DHT22;52756;52.826;6.214;2023-12-07T05:54:06;1.30;88.90
54938;DHT22;52756;52.826;6.214;2023-12-07T05:56:31;1.30;88.90
54938;DHT22;52756;52.826;6.214;2023-12-07T05:58:57;1.30;89.00
54938;DHT22;52756;52.826;6.214;2023-12-07T06:01:23;1.30;89.00
54938;DHT22;52756;52.826;6.214;2023-12-07T06:03:50;1.30;89.00
54938;DHT22;52756;52.826;6.214;2023-12-07T06:06:15;1.30;89.10
54938;DHT22;52756;52.826;6.214;2023-12-07T06:08:42;1.30;89.10
54938;DHT22;52756;52.826;6.214;2023-12-07T06:11:07;1.30;89.10
54938;DHT22;52756;52.826;6.214;2023-12-07T06:13:33;1.30;89.10
54938;DHT22;52756;52.826;6.214;2023-12-07T06:15:59;1.30;89.10
54938;DHT22;52756;52.826;6.214;2023-12-07T06:18:26;1.30;89.10
54938;DHT22;52756;52.826;6.214;2023-12-07T06:20:52;1.30;89.10
54938;DHT22;52756;52.826;6.214;2023-12-07T06:23:17;1.20;89.00
54938;DHT22;52756;52.826;6.214;2023-12-07T06:25:43;1.20;88.90
54938;DHT22;52756;52.826;6.214;2023-12-07T06:28:09;1.20;88.90
54938;DHT22;52756;52.826;6.214;2023-12-07T06:30:35;1.20;88.80
54938;DHT22;52756;52.826;6.214;2023-12-07T06:33:00;1.20;88.90
54938;DHT22;52756;52.826;6.214;2023-12-07T06:35:26;1.20;88.90
54938;DHT22;52756;52.826;6.214;2023-12-07T06:37:51;1.20;89.00
54938;DHT22;52756;52.826;6.214;2023-12-07T06:40:17;1.20;88.90
54938;DHT22;52756;52.826;6.214;2023-12-07T06:42:43;1.20;88.90
54938;DHT22;52756;52.826;6.214;2023-12-07T06:45:08;1.20;88.90
54938;DHT22;52756;52.826;6.214;2023-12-07T06:47:39;1.10;88.90
54938;DHT22;52756;52.826;6.214;2023-12-07T06:50:05;1.10;88.90
54938;DHT22;52756;52.826;6.214;2023-12-07T06:52:34;1.20;88.90
54938;DHT22;52756;52.826;6.214;2023-12-07T06:54:59;1.10;88.80
54938;DHT22;52756;52.826;6.214;2023-12-07T06:57:25;1.10;88.90
54938;DHT22;52756;52.826;6.214;2023-12-07T06:59:50;1.10;88.90
54938;DHT22;52756;52.826;6.214;2023-12-07T07:02:16;1.10;88.80
54938;DHT22;52756;52.826;6.214;2023-12-07T07:04:42;1.10;88.80
54938;DHT22;52756;52.826;6.214;2023-12-07T07:07:09;1.10;88.80
54938;DHT22;52756;52.826;6.214;2023-12-07T07:09:35;1.10;88.80
54938;DHT22;52756;52.826;6.214;2023-12-07T07:12:00;1.00;88.70
54938;DHT22;52756;52.826;6.214;2023-12-07T07:14:26;1.10;88.80
54938;DHT22;52756;52.826;6.214;2023-12-07T07:16:52;1.10;88.80
54938;DHT22;52756;52.826;6.214;2023-12-07T07:19:17;1.00;88.70
54938;DHT22;52756;52.826;6.214;2023-12-07T07:21:43;1.00;89.10
54938;DHT22;52756;52.826;6.214;2023-12-07T07:24:09;1.00;88.80
54938;DHT22;52756;52.826;6.214;2023-12-07T07:26:35;1.00;88.80
54938;DHT22;52756;52.826;6.214;2023-12-07T07:29:00;1.00;88.80
54938;DHT22;52756;52.826;6.214;2023-12-07T07:31:26;1.00;88.70
54938;DHT22;52756;52.826;6.214;2023-12-07T07:33:51;1.00;88.40
54938;DHT22;52756;52.826;6.214;2023-12-07T07:36:17;1.00;88.60
54938;DHT22;52756;52.826;6.214;2023-12-07T07:38:43;1.00;88.20
54938;DHT22;52756;52.826;6.214;2023-12-07T07:41:10;0.90;88.10
54938;DHT22;52756;52.826;6.214;2023-12-07T07:43:36;0.90;88.10
54938;DHT22;52756;52.826;6.214;2023-12-07T07:46:03;0.90;88.10
54938;DHT22;52756;52.826;6.214;2023-12-07T07:48:29;0.90;88.10
54938;DHT22;52756;52.826;6.214;2023-12-07T07:50:54;0.80;88.10
54938;DHT22;52756;52.826;6.214;2023-12-07T07:53:20;0.80;88.10
54938;DHT22;52756;52.826;6.214;2023-12-07T07:55:45;0.80;88.10
54938;DHT22;52756;52.826;6.214;2023-12-07T07:58:11;0.80;88.20
54938;DHT22;52756;52.826;6.214;2023-12-07T08:00:37;0.70;88.20
54938;DHT22;52756;52.826;6.214;2023-12-07T08:03:02;0.70;88.40
54938;DHT22;52756;52.826;6.214;2023-12-07T08:05:28;0.70;88.50
54938;DHT22;52756;52.826;6.214;2023-12-07T08:07:54;0.70;88.60
54938;DHT22;52756;52.826;6.214;2023-12-07T08:10:19;0.70;88.70
54938;DHT22;52756;52.826;6.214;2023-12-07T08:12:45;0.70;88.80
54938;DHT22;52756;52.826;6.214;2023-12-07T08:15:11;0.60;88.90
54938;DHT22;52756;52.826;6.214;2023-12-07T08:17:40;0.70;89.10
54938;DHT22;52756;52.826;6.214;2023-12-07T08:20:08;0.70;89.30
54938;DHT22;52756;52.826;6.214;2023-12-07T08:22:39;0.70;89.40
54938;DHT22;52756;52.826;6.214;2023-12-07T08:25:05;0.70;90.00
54938;DHT22;52756;52.826;6.214;2023-12-07T08:27:32;0.70;89.70
54938;DHT22;52756;52.826;6.214;2023-12-07T08:29:58;0.70;89.70
54938;DHT22;52756;52.826;6.214;2023-12-07T08:32:24;0.80;89.90
54938;DHT22;52756;52.826;6.214;2023-12-07T08:34:51;0.70;89.90
54938;DHT22;52756;52.826;6.214;2023-12-07T08:37:17;0.70;90.00
54938;DHT22;52756;52.826;6.214;2023-12-07T08:39:43;0.70;90.00
54938;DHT22;52756;52.826;6.214;2023-12-07T08:42:09;0.70;90.00
54938;DHT22;52756;52.826;6.214;2023-12-07T08:44:34;0.70;90.00
54938;DHT22;52756;52.826;6.214;2023-12-07T08:47:00;0.70;90.10
54938;DHT22;52756;52.826;6.214;2023-12-07T08:49:25;0.70;90.10
54938;DHT22;52756;52.826;6.214;2023-12-07T08:51:51;0.70;90.20
54938;DHT22;52756;52.826;6.214;2023-12-07T08:54:18;0.80;90.20
54938;DHT22;52756;52.826;6.214;2023-12-07T08:56:44;0.80;90.30
54938;DHT22;52756;52.826;6.214;2023-12-07T08:59:10;0.80;90.30
54938;DHT22;52756;52.826;6.214;2023-12-07T09:01:36;0.80;90.40
54938;DHT22;52756;52.826;6.214;2023-12-07T09:04:01;0.80;90.40
54938;DHT22;52756;52.826;6.214;2023-12-07T09:06:27;0.80;90.70
54938;DHT22;52756;52.826;6.214;2023-12-07T09:08:53;0.90;90.60
54938;DHT22;52756;52.826;6.214;2023-12-07T09:11:18;0.90;90.60
54938;DHT22;52756;52.826;6.214;2023-12-07T09:13:44;0.90;90.70
54938;DHT22;52756;52.826;6.214;2023-12-07T09:16:09;0.90;90.80
54938;DHT22;52756;52.826;6.214;2023-12-07T09:18:35;1.00;90.90
54938;DHT22;52756;52.826;6.214;2023-12-07T09:21:02;1.10;91.00
54938;DHT22;52756;52.826;6.214;2023-12-07T09:23:28;1.10;91.00
54938;DHT22;52756;52.826;6.214;2023-12-07T09:25:54;1.10;91.10
54938;DHT22;52756;52.826;6.214;2023-12-07T09:28:20;1.20;91.10
54938;DHT22;52756;52.826;6.214;2023-12-07T09:30:46;1.20;91.10
54938;DHT22;52756;52.826;6.214;2023-12-07T09:33:12;1.30;91.10
54938;DHT22;52756;52.826;6.214;2023-12-07T09:35:39;1.30;91.10
54938;DHT22;52756;52.826;6.214;2023-12-07T09:38:04;1.30;91.00
54938;DHT22;52756;52.826;6.214;2023-12-07T09:40:30;1.30;91.00
54938;DHT22;52756;52.826;6.214;2023-12-07T09:42:56;1.30;91.00
54938;DHT22;52756;52.826;6.214;2023-12-07T09:45:22;1.30;90.90
54938;DHT22;52756;52.826;6.214;2023-12-07T09:47:50;1.30;90.90
54938;DHT22;52756;52.826;6.214;2023-12-07T09:50:21;1.30;90.90
54938;DHT22;52756;52.826;6.214;2023-12-07T09:52:53;1.30;90.90
54938;DHT22;52756;52.826;6.214;2023-12-07T09:55:19;1.30;90.90
54938;DHT22;52756;52.826;6.214;2023-12-07T09:57:49;1.30;90.90
54938;DHT22;52756;52.826;6.214;2023-12-07T10:00:15;1.30;90.90
54938;DHT22;52756;52.826;6.214;2023-12-07T10:02:42;1.30;90.80
54938;DHT22;52756;52.826;6.214;2023-12-07T10:05:12;1.30;90.90
54938;DHT22;52756;52.826;6.214;2023-12-07T10:07:48;1.30;90.90
54938;DHT22;52756;52.826;6.214;2023-12-07T10:10:15;1.30;90.90
54938;DHT22;52756;52.826;6.214;2023-12-07T10:13:01;1.30;90.90
54938;DHT22;52756;52.826;6.214;2023-12-07T10:15:27;1.30;91.00
54938;DHT22;52756;52.826;6.214;2023-12-07T10:17:56;1.30;91.00
54938;DHT22;52756;52.826;6.214;2023-12-07T10:20:24;1.40;91.10
54938;DHT22;52756;52.826;6.214;2023-12-07T10:23:10;1.40;91.00
54938;DHT22;52756;52.826;6.214;2023-12-07T10:28:03;1.30;91.00
54938;DHT22;52756;52.826;6.214;2023-12-07T10:30:36;1.40;91.00
54938;DHT22;52756;52.826;6.214;2023-12-07T10:33:06;1.40;91.00
54938;DHT22;52756;52.826;6.214;2023-12-07T10:35:42;1.30;91.00
54938;DHT22;52756;52.826;6.214;2023-12-07T10:38:08;1.30;91.10
54938;DHT22;52756;52.826;6.214;2023-12-07T10:40:34;1.40;91.00
54938;DHT22;52756;52.826;6.214;2023-12-07T10:43:05;1.40;91.00
54938;DHT22;52756;52.826;6.214;2023-12-07T10:45:31;1.40;91.00
54938;DHT22;52756;52.826;6.214;2023-12-07T10:48:07;1.40;91.00
54938;DHT22;52756;52.826;6.214;2023-12-07T10:50:35;1.40;91.00
54938;DHT22;52756;52.826;6.214;2023-12-07T10:53:33;1.30;91.00
54938;DHT22;52756;52.826;6.214;2023-12-07T10:55:57;1.30;91.00
54938;DHT22;52756;52.826;6.214;2023-12-07T10:58:25;1.30;90.90
54938;DHT22;52756;52.826;6.214;2023-12-07T11:00:55;1.30;91.00
54938;DHT22;52756;52.826;6.214;2023-12-07T11:03:21;1.30;91.00
54938;DHT22;52756;52.826;6.214;2023-12-07T11:05:48;1.30;91.00
54938;DHT22;52756;52.826;6.214;2023-12-07T11:08:50;1.30;91.00
54938;DHT22;52756;52.826;6.214;2023-12-07T11:11:28;1.30;91.00
54938;DHT22;52756;52.826;6.214;2023-12-07T11:13:59;1.30;91.00
54938;DHT22;52756;52.826;6.214;2023-12-07T11:16:32;1.30;90.90
54938;DHT22;52756;52.826;6.214;2023-12-07T11:18:59;1.20;90.90
54938;DHT22;52756;52.826;6.214;2023-12-07T11:21:25;1.40;90.90
54938;DHT22;52756;52.826;6.214;2023-12-07T11:23:52;1.30;90.90
54938;DHT22;52756;52.826;6.214;2023-12-07T11:26:23;1.30;91.00
54938;DHT22;52756;52.826;6.214;2023-12-07T11:28:49;1.30;91.00
54938;DHT22;52756;52.826;6.214;2023-12-07T11:31:15;1.30;91.00
54938;DHT22;52756;52.826;6.214;2023-12-07T11:33:41;1.30;91.20
54938;DHT22;52756;52.826;6.214;2023-12-07T11:36:08;1.30;91.10
54938;DHT22;52756;52.826;6.214;2023-12-07T11:38:36;1.30;91.00
54938;DHT22;52756;52.826;6.214;2023-12-07T11:41:02;1.30;91.10
54938;DHT22;52756;52.826;6.214;2023-12-07T11:46:07;1.30;91.10
54938;DHT22;52756;52.826;6.214;2023-12-07T11:48:32;1.30;91.10
54938;DHT22;52756;52.826;6.214;2023-12-07T11:51:06;1.30;91.10
54938;DHT22;52756;52.826;6.214;2023-12-07T11:53:37;1.30;91.20
54938;DHT22;52756;52.826;6.214;2023-12-07T11:56:05;1.30;91.10
54938;DHT22;52756;52.826;6.214;2023-12-07T11:58:32;1.30;91.10
54938;DHT22;52756;52.826;6.214;2023-12-07T12:00:58;1.30;91.20
54938;DHT22;52756;52.826;6.214;2023-12-07T12:03:28;1.30;91.30
54938;DHT22;52756;52.826;6.214;2023-12-07T12:05:54;1.30;91.20
54938;DHT22;52756;52.826;6.214;2023-12-07T12:08:20;1.30;91.20
54938;DHT22;52756;52.826;6.214;2023-12-07T12:10:47;1.30;91.20
54938;DHT22;52756;52.826;6.214;2023-12-07T12:13:15;1.70;91.40
54938;DHT22;52756;52.826;6.214;2023-12-07T12:15:41;1.30;91.30
54938;DHT22;52756;52.826;6.214;2023-12-07T12:18:08;1.40;91.30
54938;DHT22;52756;52.826;6.214;2023-12-07T12:20:33;1.40;91.30
54938;DHT22;52756;52.826;6.214;2023-12-07T12:22:59;1.40;91.30
54938;DHT22;52756;52.826;6.214;2023-12-07T12:25:30;1.40;91.30
54938;DHT22;52756;52.826;6.214;2023-12-07T12:28:03;1.40;91.30
54938;DHT22;52756;52.826;6.214;2023-12-07T12:30:30;1.40;91.40
54938;DHT22;52756;52.826;6.214;2023-12-07T12:32:56;1.40;91.30
54938;DHT22;52756;52.826;6.214;2023-12-07T12:35:22;1.40;91.30
54938;DHT22;52756;52.826;6.214;2023-12-07T12:37:49;1.40;91.40
54938;DHT22;52756;52.826;6.214;2023-12-07T12:40:19;1.40;91.40
54938;DHT22;52756;52.826;6.214;2023-12-07T12:42:46;1.40;91.40
54938;DHT22;52756;52.826;6.214;2023-12-07T12:45:12;1.40;91.40
54938;DHT22;52756;52.826;6.214;2023-12-07T12:47:38;1.40;91.40
54938;DHT22;52756;52.826;6.214;2023-12-07T12:50:06;1.40;91.40
54938;DHT22;52756;52.826;6.214;2023-12-07T12:52:32;1.40;91.40
54938;DHT22;52756;52.826;6.214;2023-12-07T12:54:58;1.40;91.40
54938;DHT22;52756;52.826;6.214;2023-12-07T12:57:24;1.40;91.40
54938;DHT22;52756;52.826;6.214;2023-12-07T12:59:53;1.40;91.40
54938;DHT22;52756;52.826;6.214;2023-12-07T13:02:22;1.40;91.50
54938;DHT22;52756;52.826;6.214;2023-12-07T13:04:47;1.40;91.50
54938;DHT22;52756;52.826;6.214;2023-12-07T13:07:13;1.50;91.50
54938;DHT22;52756;52.826;6.214;2023-12-07T13:09:42;1.50;91.50
54938;DHT22;52756;52.826;6.214;2023-12-07T13:12:09;1.50;91.60
54938;DHT22;52756;52.826;6.214;2023-12-07T13:14:35;1.50;91.60
54938;DHT22;52756;52.826;6.214;2023-12-07T13:17:01;1.50;91.60
54938;DHT22;52756;52.826;6.214;2023-12-07T13:19:29;1.50;91.60
54938;DHT22;52756;52.826;6.214;2023-12-07T13:21:54;1.50;91.60
54938;DHT22;52756;52.826;6.214;2023-12-07T13:24:20;1.50;91.50
54938;DHT22;52756;52.826;6.214;2023-12-07T13:26:46;1.60;91.60
54938;DHT22;52756;52.826;6.214;2023-12-07T13:29:13;1.60;91.60
54938;DHT22;52756;52.826;6.214;2023-12-07T13:31:38;1.60;91.70
54938;DHT22;52756;52.826;6.214;2023-12-07T13:34:04;1.60;91.60
54938;DHT22;52756;52.826;6.214;2023-12-07T13:36:29;1.60;91.70
54938;DHT22;52756;52.826;6.214;2023-12-07T13:38:57;1.60;91.70
54938;DHT22;52756;52.826;6.214;2023-12-07T13:41:23;1.60;91.70
54938;DHT22;52756;52.826;6.214;2023-12-07T13:43:49;1.70;91.70
54938;DHT22;52756;52.826;6.214;2023-12-07T13:46:17;1.70;91.70
54938;DHT22;52756;52.826;6.214;2023-12-07T13:48:42;1.70;91.70
54938;DHT22;52756;52.826;6.214;2023-12-07T13:51:08;1.70;91.70
54938;DHT22;52756;52.826;6.214;2023-12-07T13:53:34;1.70;91.70
54938;DHT22;52756;52.826;6.214;2023-12-07T13:56:00;1.70;91.70
54938;DHT22;52756;52.826;6.214;2023-12-07T13:58:26;1.70;91.70
54938;DHT22;52756;52.826;6.214;2023-12-07T14:00:51;1.70;91.70
54938;DHT22;52756;52.826;6.214;2023-12-07T14:03:17;1.80;91.70
54938;DHT22;52756;52.826;6.214;2023-12-07T14:05:43;1.70;91.70
54938;DHT22;52756;52.826;6.214;2023-12-07T14:08:08;1.80;91.70
54938;DHT22;52756;52.826;6.214;2023-12-07T14:10:34;1.80;91.70
54938;DHT22;52756;52.826;6.214;2023-12-07T14:13:00;1.80;91.70
54938;DHT22;52756;52.826;6.214;2023-12-07T14:15:26;1.80;91.70
54938;DHT22;52756;52.826;6.214;2023-12-07T14:17:52;1.80;91.70
54938;DHT22;52756;52.826;6.214;2023-12-07T14:20:17;1.80;91.70
54938;DHT22;52756;52.826;6.214;2023-12-07T14:22:43;1.80;91.70
54938;DHT22;52756;52.826;6.214;2023-12-07T14:25:09;1.80;91.70
54938;DHT22;52756;52.826;6.214;2023-12-07T14:27:35;1.80;91.70
54938;DHT22;52756;52.826;6.214;2023-12-07T14:30:01;1.80;91.70
54938;DHT22;52756;52.826;6.214;2023-12-07T14:32:27;1.90;91.80
54938;DHT22;52756;52.826;6.214;2023-12-07T14:34:55;1.90;91.80
54938;DHT22;52756;52.826;6.214;2023-12-07T14:37:20;1.90;91.80
54938;DHT22;52756;52.826;6.214;2023-12-07T14:39:46;1.90;91.80
54938;DHT22;52756;52.826;6.214;2023-12-07T14:42:12;1.90;91.80
54938;DHT22;52756;52.826;6.214;2023-12-07T14:44:37;1.90;91.80
54938;DHT22;52756;52.826;6.214;2023-12-07T14:47:03;1.90;91.80
54938;DHT22;52756;52.826;6.214;2023-12-07T14:49:29;1.90;91.80
54938;DHT22;52756;52.826;6.214;2023-12-07T14:51:55;1.90;91.80
54938;DHT22;52756;52.826;6.214;2023-12-07T14:54:24;1.90;91.80
54938;DHT22;52756;52.826;6.214;2023-12-07T14:56:50;2.00;91.80
54938;DHT22;52756;52.826;6.214;2023-12-07T14:59:16;2.00;91.80
54938;DHT22;52756;52.826;6.214;2023-12-07T15:01:42;2.00;91.80
54938;DHT22;52756;52.826;6.214;2023-12-07T15:04:08;2.00;91.80
54938;DHT22;52756;52.826;6.214;2023-12-07T15:06:34;2.00;91.90
54938;DHT22;52756;52.826;6.214;2023-12-07T15:09:01;2.00;91.90
54938;DHT22;52756;52.826;6.214;2023-12-07T15:11:31;2.00;91.90
54938;DHT22;52756;52.826;6.214;2023-12-07T15:13:56;2.10;91.90
54938;DHT22;52756;52.826;6.214;2023-12-07T15:16:22;2.00;91.90
54938;DHT22;52756;52.826;6.214;2023-12-07T15:18:48;2.10;91.90
54938;DHT22;52756;52.826;6.214;2023-12-07T15:21:14;2.10;92.00
54938;DHT22;52756;52.826;6.214;2023-12-07T15:23:41;2.10;92.00
54938;DHT22;52756;52.826;6.214;2023-12-07T15:26:10;2.20;92.00
54938;DHT22;52756;52.826;6.214;2023-12-07T15:28:37;2.20;92.00
54938;DHT22;52756;52.826;6.214;2023-12-07T15:31:06;2.20;92.00
54938;DHT22;52756;52.826;6.214;2023-12-07T15:33:32;2.20;92.00
54938;DHT22;52756;52.826;6.214;2023-12-07T15:35:59;2.20;92.00
54938;DHT22;52756;52.826;6.214;2023-12-07T15:38:25;2.20;92.00
54938;DHT22;52756;52.826;6.214;2023-12-07T15:40:51;2.30;92.00
54938;DHT22;52756;52.826;6.214;2023-12-07T15:43:22;2.30;92.00
54938;DHT22;52756;52.826;6.214;2023-12-07T15:45:48;2.30;92.00